createdAt,value
2017-08-24T15:38:19.339Z,99375.41
2017-08-24T15:40:45.885Z,99371.13
2017-08-24T15:43:12.493Z,99355.55
2017-08-24T15:45:39.526Z,99356.70
2017-08-24T15:48:06.156Z,99360.37
2017-08-24T15:50:32.642Z,99358.66
2017-08-24T15:52:59.230Z,99356.77
2017-08-24T15:55:25.665Z,99352.69
2017-08-24T15:57:52.205Z,99362.58
2017-08-24T16:00:19.049Z,99362.39
2017-08-24T16:02:46.607Z,99364.29
2017-08-24T16:05:13.145Z,99365.88
2017-08-24T16:07:39.631Z,99364.88
2017-08-24T16:10:06.630Z,99364.80
2017-08-24T16:12:33.166Z,99371.37
2017-08-24T16:14:59.598Z,99359.73
2017-08-24T16:17:26.037Z,99365.34
2017-08-24T16:19:52.572Z,99363.59
2017-08-24T16:22:19.520Z,99353.16
2017-08-24T16:24:45.957Z,99363.84
2017-08-24T16:27:12.533Z,99366.09
2017-08-24T16:29:39.028Z,99369.59
2017-08-24T16:32:05.466Z,99365.92
2017-08-24T16:34:31.948Z,99368.95
2017-08-24T16:36:58.440Z,99370.47
2017-08-24T16:39:25.067Z,99374.77
2017-08-24T16:41:51.515Z,99374.39
2017-08-24T16:44:18.051Z,99371.55
2017-08-24T16:46:44.432Z,99373.96
2017-08-24T16:49:10.941Z,99368.33
2017-08-24T16:51:37.483Z,99403.33
2017-08-24T16:54:03.949Z,99373.77
2017-08-24T16:56:30.854Z,99379.55
2017-08-24T16:58:57.375Z,99379.57
2017-08-24T17:01:23.897Z,99387.03
2017-08-24T17:03:50.862Z,99376.30
2017-08-24T17:06:17.396Z,99372.50
2017-08-24T17:08:43.833Z,99389.00
2017-08-24T17:11:10.677Z,99385.44
2017-08-24T17:13:37.112Z,99385.27
2017-08-24T17:16:03.650Z,99387.23
2017-08-24T17:18:30.698Z,99388.20
2017-08-24T17:20:57.237Z,99389.41
2017-08-24T17:23:23.670Z,99392.95
2017-08-24T17:25:50.513Z,99394.36
2017-08-24T17:28:16.947Z,99396.50
2017-08-24T17:30:43.454Z,99385.28
2017-08-24T17:33:10.290Z,99402.22
2017-08-24T17:35:36.847Z,99405.95
2017-08-24T17:38:03.406Z,99392.20
2017-08-24T17:40:29.999Z,99403.11
2017-08-24T17:42:56.420Z,99365.23
2017-08-24T17:45:22.812Z,99413.87
2017-08-24T17:47:49.452Z,99411.55
2017-08-24T17:50:15.989Z,99410.11
2017-08-24T17:52:42.650Z,99420.80
2017-08-24T17:55:09.269Z,99424.98
2017-08-24T17:57:35.704Z,99422.88
2017-08-24T18:00:02.346Z,99420.30
2017-08-24T18:02:29.188Z,99430.06
2017-08-24T18:04:55.726Z,99432.55
2017-08-24T18:07:22.113Z,99431.75
2017-08-24T18:09:48.751Z,99434.53
2017-08-24T18:12:15.237Z,99441.14
2017-08-24T18:14:41.772Z,99445.78
2017-08-24T18:17:08.309Z,99448.45
2017-08-24T18:19:34.741Z,99450.31
2017-08-24T18:22:01.335Z,99454.01
2017-08-24T18:24:27.771Z,99459.59
2017-08-24T18:26:54.261Z,99461.13
2017-08-24T18:29:20.691Z,99461.22
2017-08-24T18:31:47.124Z,99465.28
2017-08-24T18:34:13.547Z,99460.91
2017-08-24T18:36:39.993Z,99472.32
2017-08-24T18:39:06.845Z,99475.47
2017-08-24T18:41:33.250Z,99472.95
2017-08-24T18:43:59.698Z,99474.50
2017-08-24T18:46:26.245Z,99473.94
2017-08-24T18:48:52.882Z,99477.94
2017-08-24T18:51:19.320Z,99480.72
2017-08-24T18:53:45.690Z,99478.77
2017-08-24T18:56:12.283Z,99481.80
2017-08-24T18:58:38.737Z,99486.53
2017-08-24T19:01:05.161Z,99490.50
2017-08-24T19:03:31.547Z,99486.84
2017-08-24T19:05:58.031Z,99489.27
2017-08-24T19:08:24.878Z,99495.94
2017-08-24T19:10:51.311Z,99496.52
2017-08-24T19:13:17.707Z,99496.24
2017-08-24T19:15:44.577Z,99490.36
2017-08-24T19:18:10.998Z,99502.71
2017-08-24T19:20:37.435Z,99501.25
2017-08-24T19:23:04.106Z,99509.66
2017-08-24T19:25:30.596Z,99503.25
2017-08-24T19:27:57.075Z,99498.22
2017-08-24T19:30:24.120Z,99504.84
2017-08-24T19:32:50.557Z,99489.95
2017-08-24T19:35:17.092Z,99512.20
2017-08-24T19:37:43.518Z,99511.52
2017-08-24T19:40:10.270Z,99517.04
2017-08-24T19:42:36.743Z,99518.66
2017-08-24T19:45:03.345Z,99514.38
2017-08-24T19:47:29.781Z,99517.19
2017-08-24T19:49:56.624Z,99521.16
2017-08-24T19:52:23.118Z,99511.86
2017-08-24T19:54:49.595Z,99517.06
2017-08-24T19:57:16.235Z,99523.10
2017-08-24T19:59:42.624Z,99522.29
2017-08-24T20:02:09.049Z,99527.48
2017-08-24T20:04:35.562Z,99517.53
2017-08-24T20:07:02.071Z,99521.80
2017-08-24T20:09:28.926Z,99522.48
2017-08-24T20:11:55.357Z,99525.23
2017-08-24T20:14:21.896Z,99537.16
2017-08-24T20:16:48.302Z,99530.13
2017-08-24T20:19:14.764Z,99536.13
2017-08-24T20:21:41.403Z,99541.57
2017-08-24T20:24:07.840Z,99536.12
2017-08-24T20:26:34.362Z,99537.02
2017-08-24T20:29:01.324Z,99539.55
2017-08-24T20:31:27.758Z,99548.25
2017-08-24T20:33:54.294Z,99543.66
2017-08-24T20:36:21.141Z,99539.67
2017-08-24T20:38:47.571Z,99544.50
2017-08-24T20:41:14.028Z,99542.34
2017-08-24T20:43:40.841Z,99540.58
2017-08-24T20:46:07.422Z,99546.58
2017-08-24T20:48:33.846Z,99545.77
2017-08-24T20:51:00.773Z,99539.84
2017-08-24T20:53:27.207Z,99544.42
2017-08-24T20:55:53.676Z,99545.94
2017-08-24T20:58:20.591Z,99543.11
2017-08-24T21:00:46.977Z,99539.99
2017-08-24T21:03:13.461Z,99542.00
2017-08-24T21:05:39.997Z,99545.22
2017-08-24T21:08:06.536Z,99547.06
2017-08-24T21:10:33.483Z,99548.35
2017-08-24T21:12:59.916Z,99548.88
2017-08-24T21:15:26.439Z,99541.98
2017-08-24T21:17:52.892Z,99540.62
2017-08-24T21:20:19.260Z,99542.53
2017-08-24T21:22:45.642Z,99547.47
2017-08-24T21:25:12.601Z,99545.05
2017-08-24T21:27:39.008Z,99548.59
2017-08-24T21:30:05.473Z,99545.80
2017-08-24T21:32:31.907Z,99548.73
2017-08-24T21:34:58.453Z,99549.01
2017-08-24T21:37:24.878Z,99557.22
2017-08-24T21:39:51.619Z,99553.52
2017-08-24T21:42:18.056Z,99553.33
2017-08-24T21:44:44.695Z,99559.87
2017-08-24T21:47:11.132Z,99562.28
2017-08-24T21:49:37.568Z,99556.68
2017-08-24T21:52:04.013Z,99567.28
2017-08-24T21:54:30.540Z,99562.58
2017-08-24T21:56:57.165Z,99568.20
2017-08-24T21:59:23.612Z,99570.44
2017-08-24T22:01:50.047Z,99576.45
2017-08-24T22:04:16.585Z,99557.97
2017-08-24T22:06:42.976Z,99572.20
2017-08-24T22:09:09.454Z,99572.58
2017-08-24T22:11:35.841Z,99579.30
2017-08-24T22:14:02.324Z,99585.09
2017-08-24T22:16:28.758Z,99580.06
2017-08-24T22:18:55.192Z,99588.80
2017-08-24T22:21:21.662Z,99582.42
2017-08-24T22:23:48.265Z,99584.94
2017-08-24T22:26:14.762Z,99582.25
2017-08-24T22:28:41.240Z,99584.88
2017-08-24T22:31:07.628Z,99575.09
2017-08-24T22:33:34.059Z,99587.95
2017-08-24T22:36:00.442Z,99582.22
2017-08-24T22:38:26.875Z,99588.02
2017-08-24T22:40:53.312Z,99587.36
2017-08-24T22:43:19.746Z,99552.90
2017-08-24T22:45:46.285Z,99580.33
2017-08-24T22:48:12.719Z,99586.69
2017-08-24T22:50:39.153Z,99579.39
2017-08-24T22:53:05.588Z,99576.44
2017-08-24T22:55:32.126Z,99577.25
2017-08-24T22:57:58.513Z,99578.85
2017-08-24T23:00:25.294Z,99578.52
2017-08-24T23:02:51.773Z,99580.09
2017-08-24T23:05:18.379Z,99594.20
2017-08-24T23:07:44.813Z,99586.09
2017-08-24T23:10:11.403Z,99586.88
2017-08-24T23:12:37.889Z,99587.59
2017-08-24T23:15:04.376Z,99585.57
2017-08-24T23:17:30.861Z,99586.77
2017-08-24T23:19:57.296Z,99592.20
2017-08-24T23:22:23.832Z,99568.47
2017-08-24T23:24:50.369Z,99585.88
2017-08-24T23:27:16.751Z,99582.66
2017-08-24T23:29:43.198Z,99585.76
2017-08-24T23:32:09.628Z,99590.92
2017-08-24T23:34:36.008Z,99565.11
2017-08-24T23:37:02.441Z,99589.71
2017-08-24T23:39:28.829Z,99593.77
2017-08-24T23:41:55.310Z,99599.84
2017-08-24T23:44:21.685Z,99596.39
2017-08-24T23:46:48.079Z,99596.80
2017-08-24T23:49:14.599Z,99585.66
2017-08-24T23:51:40.956Z,99607.76
2017-08-24T23:54:07.401Z,99599.38
2017-08-24T23:56:33.920Z,99565.64
2017-08-24T23:59:00.354Z,99582.67
